sensor_id;sensor_type;location;lat;lon;timestamp;temperature;humidity
55369;DHT22;41247;49.736;8.752;2023-05-17T00:02:45;6.40;99.90
55369;DHT22;41247;49.736;8.752;2023-05-17T00:06:25;6.40;99.90
55369;DHT22;41247;49.736;8.752;2023-05-17T00:10:06;6.30;99.90
55369;DHT22;41247;49.736;8.752;2023-05-17T00:13:47;6.20;99.90
55369;DHT22;41247;49.736;8.752;2023-05-17T00:17:27;6.10;99.90
55369;DHT22;41247;49.736;8.752;2023-05-17T00:21:08;6.10;99.90
55369;DHT22;41247;49.736;8.752;2023-05-17T00:24:49;6.00;99.90
55369;DHT22;41247;49.736;8.752;2023-05-17T00:28:29;6.00;99.90
55369;DHT22;41247;49.736;8.752;2023-05-17T00:32:10;6.00;99.90
55369;DHT22;41247;49.736;8.752;2023-05-17T00:35:50;5.90;99.90
55369;DHT22;41247;49.736;8.752;2023-05-17T00:39:31;5.90;99.90
55369;DHT22;41247;49.736;8.752;2023-05-17T00:43:12;5.80;99.90
55369;DHT22;41247;49.736;8.752;2023-05-17T00:46:52;5.70;99.90
55369;DHT22;41247;49.736;8.752;2023-05-17T00:50:33;5.70;99.90
55369;DHT22;41247;49.736;8.752;2023-05-17T00:54:14;5.70;99.90
55369;DHT22;41247;49.736;8.752;2023-05-17T00:57:55;5.70;99.90
55369;DHT22;41247;49.736;8.752;2023-05-17T01:01:36;5.70;99.90
55369;DHT22;41247;49.736;8.752;2023-05-17T01:05:20;5.70;99.90
55369;DHT22;41247;49.736;8.752;2023-05-17T01:09:02;5.70;99.90
55369;DHT22;41247;49.736;8.752;2023-05-17T01:13:23;5.70;99.90
55369;DHT22;41247;49.736;8.752;2023-05-17T01:17:23;5.70;99.90
55369;DHT22;41247;49.736;8.752;2023-05-17T01:21:34;5.70;99.90
55369;DHT22;41247;49.736;8.752;2023-05-17T01:25:26;5.70;99.90
55369;DHT22;41247;49.736;8.752;2023-05-17T01:29:31;5.70;99.90
55369;DHT22;41247;49.736;8.752;2023-05-17T01:33:13;5.60;99.90
55369;DHT22;41247;49.736;8.752;2023-05-17T01:36:54;5.60;99.90
55369;DHT22;41247;49.736;8.752;2023-05-17T01:40:39;5.50;99.90
55369;DHT22;41247;49.736;8.752;2023-05-17T01:44:47;5.50;99.90
55369;DHT22;41247;49.736;8.752;2023-05-17T01:48:40;5.40;99.90
55369;DHT22;41247;49.736;8.752;2023-05-17T01:52:34;5.40;99.90
55369;DHT22;41247;49.736;8.752;2023-05-17T01:56:33;5.30;99.90
55369;DHT22;41247;49.736;8.752;2023-05-17T02:00:14;5.30;99.90
55369;DHT22;41247;49.736;8.752;2023-05-17T02:03:55;5.20;99.90
55369;DHT22;41247;49.736;8.752;2023-05-17T02:07:36;5.20;99.90
55369;DHT22;41247;49.736;8.752;2023-05-17T02:11:16;5.10;99.90
55369;DHT22;41247;49.736;8.752;2023-05-17T02:14:57;5.00;99.90
55369;DHT22;41247;49.736;8.752;2023-05-17T02:18:38;5.00;99.90
55369;DHT22;41247;49.736;8.752;2023-05-17T02:22:18;4.90;99.90
55369;DHT22;41247;49.736;8.752;2023-05-17T02:25:59;4.90;99.90
55369;DHT22;41247;49.736;8.752;2023-05-17T02:29:39;4.90;99.90
55369;DHT22;41247;49.736;8.752;2023-05-17T02:33:20;4.80;99.90
55369;DHT22;41247;49.736;8.752;2023-05-17T02:37:00;4.80;99.90
55369;DHT22;41247;49.736;8.752;2023-05-17T02:40:41;4.80;99.90
55369;DHT22;41247;49.736;8.752;2023-05-17T02:44:22;4.80;99.90
55369;DHT22;41247;49.736;8.752;2023-05-17T02:48:02;4.80;99.90
55369;DHT22;41247;49.736;8.752;2023-05-17T02:51:43;4.70;99.90
55369;DHT22;41247;49.736;8.752;2023-05-17T02:55:24;4.70;99.90
55369;DHT22;41247;49.736;8.752;2023-05-17T02:59:04;4.70;99.90
55369;DHT22;41247;49.736;8.752;2023-05-17T03:02:45;4.70;99.90
55369;DHT22;41247;49.736;8.752;2023-05-17T03:06:25;4.70;99.90
55369;DHT22;41247;49.736;8.752;2023-05-17T03:10:06;4.70;99.90
55369;DHT22;41247;49.736;8.752;2023-05-17T03:13:47;4.70;99.90
55369;DHT22;41247;49.736;8.752;2023-05-17T03:17:28;4.70;99.90
55369;DHT22;41247;49.736;8.752;2023-05-17T03:21:08;4.70;99.90
55369;DHT22;41247;49.736;8.752;2023-05-17T03:24:49;4.70;99.90
55369;DHT22;41247;49.736;8.752;2023-05-17T03:28:29;4.60;99.90
55369;DHT22;41247;49.736;8.752;2023-05-17T03:32:10;4.60;99.90
55369;DHT22;41247;49.736;8.752;2023-05-17T03:35:51;4.70;99.90
55369;DHT22;41247;49.736;8.752;2023-05-17T03:39:31;4.70;99.90
55369;DHT22;41247;49.736;8.752;2023-05-17T03:43:12;4.70;99.90
55369;DHT22;41247;49.736;8.752;2023-05-17T03:46:52;4.70;99.90
55369;DHT22;41247;49.736;8.752;2023-05-17T03:50:33;4.70;99.90
55369;DHT22;41247;49.736;8.752;2023-05-17T03:54:14;4.70;99.90
55369;DHT22;41247;49.736;8.752;2023-05-17T03:57:54;4.70;99.90
55369;DHT22;41247;49.736;8.752;2023-05-17T04:01:35;4.70;99.90
55369;DHT22;41247;49.736;8.752;2023-05-17T04:05:16;4.80;99.90
55369;DHT22;41247;49.736;8.752;2023-05-17T04:08:57;4.80;99.90
55369;DHT22;41247;49.736;8.752;2023-05-17T04:12:37;4.80;99.90
55369;DHT22;41247;49.736;8.752;2023-05-17T04:16:18;4.90;99.90
55369;DHT22;41247;49.736;8.752;2023-05-17T04:19:59;4.90;99.90
55369;DHT22;41247;49.736;8.752;2023-05-17T04:23:40;5.00;99.90
55369;DHT22;41247;49.736;8.752;2023-05-17T04:27:20;5.00;99.90
55369;DHT22;41247;49.736;8.752;2023-05-17T04:31:01;5.10;99.90
55369;DHT22;41247;49.736;8.752;2023-05-17T04:34:41;5.10;99.90
55369;DHT22;41247;49.736;8.752;2023-05-17T04:38:22;5.20;99.90
55369;DHT22;41247;49.736;8.752;2023-05-17T04:42:03;5.30;99.90
55369;DHT22;41247;49.736;8.752;2023-05-17T04:45:43;5.40;99.90
55369;DHT22;41247;49.736;8.752;2023-05-17T04:49:24;5.50;99.90
55369;DHT22;41247;49.736;8.752;2023-05-17T04:53:04;5.60;99.90
55369;DHT22;41247;49.736;8.752;2023-05-17T04:56:45;5.70;99.90
55369;DHT22;41247;49.736;8.752;2023-05-17T05:00:26;5.70;99.90
55369;DHT22;41247;49.736;8.752;2023-05-17T05:04:06;5.80;99.90
55369;DHT22;41247;49.736;8.752;2023-05-17T05:07:47;5.80;99.90
55369;DHT22;41247;49.736;8.752;2023-05-17T05:11:28;5.80;99.90
55369;DHT22;41247;49.736;8.752;2023-05-17T05:15:09;5.80;99.90
55369;DHT22;41247;49.736;8.752;2023-05-17T05:18:50;5.80;99.90
55369;DHT22;41247;49.736;8.752;2023-05-17T05:22:30;5.80;99.90
55369;DHT22;41247;49.736;8.752;2023-05-17T05:26:11;5.90;99.90
55369;DHT22;41247;49.736;8.752;2023-05-17T05:29:52;5.90;99.90
55369;DHT22;41247;49.736;8.752;2023-05-17T05:33:33;6.00;99.90
55369;DHT22;41247;49.736;8.752;2023-05-17T05:37:14;6.00;99.90
55369;DHT22;41247;49.736;8.752;2023-05-17T05:40:54;6.20;99.90
55369;DHT22;41247;49.736;8.752;2023-05-17T05:44:35;6.30;99.90
55369;DHT22;41247;49.736;8.752;2023-05-17T05:48:16;6.40;99.90
55369;DHT22;41247;49.736;8.752;2023-05-17T05:51:57;6.50;99.90
55369;DHT22;41247;49.736;8.752;2023-05-17T05:55:41;6.60;99.90
55369;DHT22;41247;49.736;8.752;2023-05-17T05:59:21;6.70;99.90
55369;DHT22;41247;49.736;8.752;2023-05-17T06:03:03;6.80;99.90
55369;DHT22;41247;49.736;8.752;2023-05-17T06:06:44;6.90;99.90
55369;DHT22;41247;49.736;8.752;2023-05-17T06:10:25;7.00;99.90
55369;DHT22;41247;49.736;8.752;2023-05-17T06:14:05;7.10;99.90
55369;DHT22;41247;49.736;8.752;2023-05-17T06:17:46;7.20;99.90
55369;DHT22;41247;49.736;8.752;2023-05-17T06:21:27;7.30;99.90
55369;DHT22;41247;49.736;8.752;2023-05-17T06:25:07;7.50;99.90
55369;DHT22;41247;49.736;8.752;2023-05-17T06:28:48;7.60;99.90
55369;DHT22;41247;49.736;8.752;2023-05-17T06:32:29;7.70;99.90
55369;DHT22;41247;49.736;8.752;2023-05-17T06:36:10;7.80;99.90
55369;DHT22;41247;49.736;8.752;2023-05-17T06:39:51;7.80;99.90
55369;DHT22;41247;49.736;8.752;2023-05-17T06:43:32;7.90;99.90
55369;DHT22;41247;49.736;8.752;2023-05-17T06:47:12;8.20;99.90
55369;DHT22;41247;49.736;8.752;2023-05-17T06:50:53;8.60;99.90
55369;DHT22;41247;49.736;8.752;2023-05-17T06:54:34;9.00;99.90
55369;DHT22;41247;49.736;8.752;2023-05-17T06:58:14;9.30;99.90
55369;DHT22;41247;49.736;8.752;2023-05-17T07:01:55;9.60;99.90
55369;DHT22;41247;49.736;8.752;2023-05-17T07:05:36;9.60;99.90
55369;DHT22;41247;49.736;8.752;2023-05-17T07:09:20;9.70;99.90
55369;DHT22;41247;49.736;8.752;2023-05-17T07:13:00;10.10;99.90
55369;DHT22;41247;49.736;8.752;2023-05-17T07:16:41;10.50;99.90
55369;DHT22;41247;49.736;8.752;2023-05-17T07:20:22;11.00;99.90
55369;DHT22;41247;49.736;8.752;2023-05-17T07:24:02;11.20;99.90
55369;DHT22;41247;49.736;8.752;2023-05-17T07:27:43;11.30;99.90
55369;DHT22;41247;49.736;8.752;2023-05-17T07:31:24;11.20;99.90
55369;DHT22;41247;49.736;8.752;2023-05-17T07:35:04;11.30;99.90
55369;DHT22;41247;49.736;8.752;2023-05-17T07:38:45;11.30;99.90
55369;DHT22;41247;49.736;8.752;2023-05-17T07:42:26;11.40;99.90
55369;DHT22;41247;49.736;8.752;2023-05-17T07:46:06;11.30;99.90
55369;DHT22;41247;49.736;8.752;2023-05-17T07:49:47;11.00;99.90
55369;DHT22;41247;49.736;8.752;2023-05-17T07:53:28;10.80;99.90
55369;DHT22;41247;49.736;8.752;2023-05-17T07:57:08;10.70;99.90
55369;DHT22;41247;49.736;8.752;2023-05-17T08:00:49;10.80;99.90
55369;DHT22;41247;49.736;8.752;2023-05-17T08:04:29;10.80;99.90
55369;DHT22;41247;49.736;8.752;2023-05-17T08:08:10;10.90;99.90
55369;DHT22;41247;49.736;8.752;2023-05-17T08:11:51;11.20;99.90
55369;DHT22;41247;49.736;8.752;2023-05-17T08:15:31;11.50;99.90
55369;DHT22;41247;49.736;8.752;2023-05-17T08:19:13;11.90;99.90
55369;DHT22;41247;49.736;8.752;2023-05-17T08:22:54;12.20;99.90
55369;DHT22;41247;49.736;8.752;2023-05-17T08:26:34;12.40;99.90
55369;DHT22;41247;49.736;8.752;2023-05-17T08:30:15;12.70;99.90
55369;DHT22;41247;49.736;8.752;2023-05-17T08:33:56;13.20;99.90
55369;DHT22;41247;49.736;8.752;2023-05-17T08:37:36;13.50;99.90
55369;DHT22;41247;49.736;8.752;2023-05-17T08:41:17;13.70;99.90
55369;DHT22;41247;49.736;8.752;2023-05-17T08:44:58;13.70;99.90
55369;DHT22;41247;49.736;8.752;2023-05-17T08:48:40;13.30;99.90
55369;DHT22;41247;49.736;8.752;2023-05-17T08:52:22;13.40;99.90
55369;DHT22;41247;49.736;8.752;2023-05-17T08:56:03;13.30;99.90
55369;DHT22;41247;49.736;8.752;2023-05-17T08:59:45;13.30;99.90
55369;DHT22;41247;49.736;8.752;2023-05-17T09:03:27;13.30;99.90
55369;DHT22;41247;49.736;8.752;2023-05-17T09:07:08;13.30;99.90
55369;DHT22;41247;49.736;8.752;2023-05-17T09:10:49;13.30;99.90
55369;DHT22;41247;49.736;8.752;2023-05-17T09:14:33;13.10;99.90
55369;DHT22;41247;49.736;8.752;2023-05-17T09:18:13;13.00;99.90
55369;DHT22;41247;49.736;8.752;2023-05-17T09:21:54;13.00;99.90
55369;DHT22;41247;49.736;8.752;2023-05-17T09:25:35;13.00;99.90
55369;DHT22;41247;49.736;8.752;2023-05-17T09:29:16;13.00;99.90
55369;DHT22;41247;49.736;8.752;2023-05-17T09:32:57;12.90;99.90
55369;DHT22;41247;49.736;8.752;2023-05-17T09:36:41;12.70;99.90
55369;DHT22;41247;49.736;8.752;2023-05-17T09:40:23;12.60;99.90
55369;DHT22;41247;49.736;8.752;2023-05-17T09:44:07;12.70;99.90
55369;DHT22;41247;49.736;8.752;2023-05-17T09:47:49;12.70;99.90
55369;DHT22;41247;49.736;8.752;2023-05-17T09:51:34;12.70;99.90
55369;DHT22;41247;49.736;8.752;2023-05-17T09:55:26;12.70;99.90
55369;DHT22;41247;49.736;8.752;2023-05-17T09:59:12;13.00;99.90
55369;DHT22;41247;49.736;8.752;2023-05-17T10:02:54;13.10;99.90
55369;DHT22;41247;49.736;8.752;2023-05-17T10:06:38;13.20;99.90
55369;DHT22;41247;49.736;8.752;2023-05-17T10:10:19;13.30;99.90
55369;DHT22;41247;49.736;8.752;2023-05-17T10:17:49;13.90;99.90
55369;DHT22;41247;49.736;8.752;2023-05-17T10:21:30;14.30;99.90
55369;DHT22;41247;49.736;8.752;2023-05-17T10:25:11;14.90;99.90
55369;DHT22;41247;49.736;8.752;2023-05-17T10:28:56;15.30;99.90
55369;DHT22;41247;49.736;8.752;2023-05-17T10:32:38;15.50;99.90
55369;DHT22;41247;49.736;8.752;2023-05-17T10:36:19;15.50;99.90
55369;DHT22;41247;49.736;8.752;2023-05-17T10:40:02;15.50;99.90
55369;DHT22;41247;49.736;8.752;2023-05-17T10:43:44;15.40;99.90
55369;DHT22;41247;49.736;8.752;2023-05-17T10:47:32;15.40;99.90
55369;DHT22;41247;49.736;8.752;2023-05-17T10:51:13;15.30;99.90
55369;DHT22;41247;49.736;8.752;2023-05-17T10:54:53;15.00;99.90
55369;DHT22;41247;49.736;8.752;2023-05-17T10:58:34;14.90;99.90
55369;DHT22;41247;49.736;8.752;2023-05-17T11:02:22;14.90;99.90
55369;DHT22;41247;49.736;8.752;2023-05-17T11:06:10;14.80;99.90
55369;DHT22;41247;49.736;8.752;2023-05-17T11:10:02;15.00;99.90
55369;DHT22;41247;49.736;8.752;2023-05-17T11:13:53;15.30;99.90
55369;DHT22;41247;49.736;8.752;2023-05-17T11:21:27;16.30;99.90
55369;DHT22;41247;49.736;8.752;2023-05-17T11:25:09;16.40;99.90
55369;DHT22;41247;49.736;8.752;2023-05-17T11:29:01;16.50;99.90
55369;DHT22;41247;49.736;8.752;2023-05-17T11:32:50;16.50;99.90
55369;DHT22;41247;49.736;8.752;2023-05-17T11:36:49;16.10;99.90
55369;DHT22;41247;49.736;8.752;2023-05-17T11:40:31;16.10;99.90
55369;DHT22;41247;49.736;8.752;2023-05-17T11:44:12;16.70;99.90
55369;DHT22;41247;49.736;8.752;2023-05-17T11:47:52;17.30;99.90
55369;DHT22;41247;49.736;8.752;2023-05-17T11:51:33;17.20;99.90
55369;DHT22;41247;49.736;8.752;2023-05-17T11:55:15;17.00;99.90
55369;DHT22;41247;49.736;8.752;2023-05-17T11:58:55;16.60;99.90
55369;DHT22;41247;49.736;8.752;2023-05-17T12:02:36;16.20;99.90
55369;DHT22;41247;49.736;8.752;2023-05-17T12:06:16;16.30;99.90
55369;DHT22;41247;49.736;8.752;2023-05-17T12:09:57;16.70;99.90
55369;DHT22;41247;49.736;8.752;2023-05-17T12:13:38;17.20;99.90
55369;DHT22;41247;49.736;8.752;2023-05-17T12:17:33;17.70;99.90
55369;DHT22;41247;49.736;8.752;2023-05-17T12:21:17;18.10;99.90
55369;DHT22;41247;49.736;8.752;2023-05-17T12:24:58;18.40;99.90
55369;DHT22;41247;49.736;8.752;2023-05-17T12:28:40;19.00;99.90
55369;DHT22;41247;49.736;8.752;2023-05-17T12:32:24;19.50;99.90
55369;DHT22;41247;49.736;8.752;2023-05-17T12:36:05;19.20;99.90
55369;DHT22;41247;49.736;8.752;2023-05-17T12:39:48;18.70;99.90
55369;DHT22;41247;49.736;8.752;2023-05-17T12:43:31;18.10;99.90
55369;DHT22;41247;49.736;8.752;2023-05-17T12:47:13;18.60;99.90
55369;DHT22;41247;49.736;8.752;2023-05-17T12:50:53;19.20;99.90
55369;DHT22;41247;49.736;8.752;2023-05-17T12:54:34;19.40;99.90
55369;DHT22;41247;49.736;8.752;2023-05-17T12:58:14;19.10;99.90
55369;DHT22;41247;49.736;8.752;2023-05-17T13:01:56;19.50;99.90
55369;DHT22;41247;49.736;8.752;2023-05-17T13:05:37;19.30;99.90
55369;DHT22;41247;49.736;8.752;2023-05-17T13:09:23;19.70;99.90
55369;DHT22;41247;49.736;8.752;2023-05-17T13:13:04;20.30;99.90
55369;DHT22;41247;49.736;8.752;2023-05-17T13:16:45;20.00;99.90
55369;DHT22;41247;49.736;8.752;2023-05-17T13:20:26;19.70;99.90
55369;DHT22;41247;49.736;8.752;2023-05-17T13:24:08;19.40;99.90
55369;DHT22;41247;49.736;8.752;2023-05-17T13:27:49;18.70;99.90
55369;DHT22;41247;49.736;8.752;2023-05-17T13:31:29;19.00;99.90
55369;DHT22;41247;49.736;8.752;2023-05-17T13:35:10;19.60;99.90
55369;DHT22;41247;49.736;8.752;2023-05-17T13:38:50;20.00;99.90
55369;DHT22;41247;49.736;8.752;2023-05-17T13:42:31;20.20;99.90
55369;DHT22;41247;49.736;8.752;2023-05-17T13:46:11;20.10;99.90
55369;DHT22;41247;49.736;8.752;2023-05-17T13:49:52;19.60;99.90
55369;DHT22;41247;49.736;8.752;2023-05-17T13:53:33;20.10;99.90
55369;DHT22;41247;49.736;8.752;2023-05-17T13:57:13;20.80;99.90
55369;DHT22;41247;49.736;8.752;2023-05-17T14:00:54;21.00;99.90
55369;DHT22;41247;49.736;8.752;2023-05-17T14:04:35;21.50;99.90
55369;DHT22;41247;49.736;8.752;2023-05-17T14:08:16;21.50;99.90
55369;DHT22;41247;49.736;8.752;2023-05-17T14:11:57;21.20;99.90
55369;DHT22;41247;49.736;8.752;2023-05-17T14:15:38;21.10;99.90
55369;DHT22;41247;49.736;8.752;2023-05-17T14:19:19;21.00;99.90
55369;DHT22;41247;49.736;8.752;2023-05-17T14:23:00;21.10;99.90
55369;DHT22;41247;49.736;8.752;2023-05-17T14:26:40;21.20;99.90
55369;DHT22;41247;49.736;8.752;2023-05-17T14:30:21;21.20;99.90
55369;DHT22;41247;49.736;8.752;2023-05-17T14:34:02;21.40;99.90
55369;DHT22;41247;49.736;8.752;2023-05-17T14:37:42;21.70;99.90
55369;DHT22;41247;49.736;8.752;2023-05-17T14:41:23;21.80;99.90
55369;DHT22;41247;49.736;8.752;2023-05-17T14:45:05;22.00;99.90
55369;DHT22;41247;49.736;8.752;2023-05-17T14:48:46;22.00;99.90
55369;DHT22;41247;49.736;8.752;2023-05-17T14:52:27;22.00;99.90
55369;DHT22;41247;49.736;8.752;2023-05-17T14:56:07;21.80;99.90
55369;DHT22;41247;49.736;8.752;2023-05-17T14:59:48;22.20;99.90
55369;DHT22;41247;49.736;8.752;2023-05-17T15:03:28;22.40;99.90
55369;DHT22;41247;49.736;8.752;2023-05-17T15:07:09;22.30;99.90
55369;DHT22;41247;49.736;8.752;2023-05-17T15:10:50;22.10;99.90
55369;DHT22;41247;49.736;8.752;2023-05-17T15:14:31;22.30;99.90
55369;DHT22;41247;49.736;8.752;2023-05-17T15:18:11;22.00;99.90
55369;DHT22;41247;49.736;8.752;2023-05-17T15:21:52;22.10;99.90
55369;DHT22;41247;49.736;8.752;2023-05-17T15:25:33;22.30;99.90
55369;DHT22;41247;49.736;8.752;2023-05-17T15:29:13;22.10;99.90
55369;DHT22;41247;49.736;8.752;2023-05-17T15:32:55;22.20;99.90
55369;DHT22;41247;49.736;8.752;2023-05-17T15:36:37;22.40;99.90
55369;DHT22;41247;49.736;8.752;2023-05-17T15:40:18;22.20;99.90
55369;DHT22;41247;49.736;8.752;2023-05-17T15:43:58;21.60;99.90
55369;DHT22;41247;49.736;8.752;2023-05-17T15:47:39;21.20;99.90
55369;DHT22;41247;49.736;8.752;2023-05-17T15:51:20;20.50;99.90
55369;DHT22;41247;49.736;8.752;2023-05-17T15:55:00;20.00;99.90
55369;DHT22;41247;49.736;8.752;2023-05-17T15:58:41;19.40;99.90
55369;DHT22;41247;49.736;8.752;2023-05-17T16:02:21;19.60;99.90
55369;DHT22;41247;49.736;8.752;2023-05-17T16:06:03;20.00;99.90
55369;DHT22;41247;49.736;8.752;2023-05-17T16:09:44;20.40;99.90
55369;DHT22;41247;49.736;8.752;2023-05-17T16:13:25;21.50;99.90
55369;DHT22;41247;49.736;8.752;2023-05-17T16:17:06;20.30;99.90
55369;DHT22;41247;49.736;8.752;2023-05-17T16:20:46;19.30;99.90
55369;DHT22;41247;49.736;8.752;2023-05-17T16:24:36;18.40;99.90
55369;DHT22;41247;49.736;8.752;2023-05-17T16:28:16;18.20;99.90
55369;DHT22;41247;49.736;8.752;2023-05-17T16:31:57;18.40;99.90
55369;DHT22;41247;49.736;8.752;2023-05-17T16:35:38;18.30;99.90
55369;DHT22;41247;49.736;8.752;2023-05-17T16:39:19;18.50;99.90
55369;DHT22;41247;49.736;8.752;2023-05-17T16:42:59;19.00;99.90
55369;DHT22;41247;49.736;8.752;2023-05-17T16:46:40;19.70;99.90
55369;DHT22;41247;49.736;8.752;2023-05-17T16:50:21;19.10;99.90
55369;DHT22;41247;49.736;8.752;2023-05-17T16:54:01;18.20;99.90
55369;DHT22;41247;49.736;8.752;2023-05-17T16:57:42;17.60;99.90
55369;DHT22;41247;49.736;8.752;2023-05-17T17:01:22;17.30;99.90
55369;DHT22;41247;49.736;8.752;2023-05-17T17:05:03;16.90;99.90
55369;DHT22;41247;49.736;8.752;2023-05-17T17:08:44;16.60;99.90
55369;DHT22;41247;49.736;8.752;2023-05-17T17:12:24;16.60;99.90
55369;DHT22;41247;49.736;8.752;2023-05-17T17:16:05;16.40;99.90
55369;DHT22;41247;49.736;8.752;2023-05-17T17:19:46;16.40;99.90
55369;DHT22;41247;49.736;8.752;2023-05-17T17:23:26;16.70;99.90
55369;DHT22;41247;49.736;8.752;2023-05-17T17:27:07;16.60;99.90
55369;DHT22;41247;49.736;8.752;2023-05-17T17:30:47;16.30;99.90
55369;DHT22;41247;49.736;8.752;2023-05-17T17:34:28;16.50;99.90
55369;DHT22;41247;49.736;8.752;2023-05-17T17:38:11;17.80;99.90
55369;DHT22;41247;49.736;8.752;2023-05-17T17:41:52;18.10;99.90
55369;DHT22;41247;49.736;8.752;2023-05-17T17:45:32;18.20;99.90
55369;DHT22;41247;49.736;8.752;2023-05-17T17:49:13;18.20;99.90
55369;DHT22;41247;49.736;8.752;2023-05-17T17:52:54;18.70;99.90
55369;DHT22;41247;49.736;8.752;2023-05-17T17:56:34;18.50;99.90
55369;DHT22;41247;49.736;8.752;2023-05-17T18:00:15;17.70;99.90
55369;DHT22;41247;49.736;8.752;2023-05-17T18:03:56;16.90;99.90
55369;DHT22;41247;49.736;8.752;2023-05-17T18:07:37;16.10;99.90
55369;DHT22;41247;49.736;8.752;2023-05-17T18:11:17;15.40;99.90
55369;DHT22;41247;49.736;8.752;2023-05-17T18:14:58;14.80;99.90
55369;DHT22;41247;49.736;8.752;2023-05-17T18:18:39;14.30;99.90
55369;DHT22;41247;49.736;8.752;2023-05-17T18:22:19;13.80;99.90
55369;DHT22;41247;49.736;8.752;2023-05-17T18:26:03;13.50;99.90
55369;DHT22;41247;49.736;8.752;2023-05-17T18:29:43;13.20;99.90
55369;DHT22;41247;49.736;8.752;2023-05-17T18:33:24;12.80;99.90
55369;DHT22;41247;49.736;8.752;2023-05-17T18:37:04;12.60;99.90
55369;DHT22;41247;49.736;8.752;2023-05-17T18:40:45;12.30;99.90
55369;DHT22;41247;49.736;8.752;2023-05-17T18:44:26;12.10;99.90
55369;DHT22;41247;49.736;8.752;2023-05-17T18:48:06;11.90;99.90
55369;DHT22;41247;49.736;8.752;2023-05-17T18:51:47;11.80;99.90
55369;DHT22;41247;49.736;8.752;2023-05-17T18:55:27;11.50;99.90
55369;DHT22;41247;49.736;8.752;2023-05-17T18:59:08;11.30;99.90
55369;DHT22;41247;49.736;8.752;2023-05-17T19:02:48;11.10;99.90
55369;DHT22;41247;49.736;8.752;2023-05-17T19:06:29;10.90;99.90
55369;DHT22;41247;49.736;8.752;2023-05-17T19:10:10;10.80;99.90
55369;DHT22;41247;49.736;8.752;2023-05-17T19:13:50;10.60;99.90
55369;DHT22;41247;49.736;8.752;2023-05-17T19:17:31;10.40;99.90
55369;DHT22;41247;49.736;8.752;2023-05-17T19:21:11;10.10;99.90
55369;DHT22;41247;49.736;8.752;2023-05-17T19:24:52;9.90;99.90
55369;DHT22;41247;49.736;8.752;2023-05-17T19:28:33;9.80;99.90
55369;DHT22;41247;49.736;8.752;2023-05-17T19:32:13;9.70;99.90
55369;DHT22;41247;49.736;8.752;2023-05-17T19:35:54;9.50;99.90
55369;DHT22;41247;49.736;8.752;2023-05-17T19:39:34;9.40;99.90
55369;DHT22;41247;49.736;8.752;2023-05-17T19:43:15;9.30;99.90
55369;DHT22;41247;49.736;8.752;2023-05-17T19:46:56;9.10;99.90
55369;DHT22;41247;49.736;8.752;2023-05-17T19:50:36;9.00;99.90
55369;DHT22;41247;49.736;8.752;2023-05-17T19:54:17;8.80;99.90
55369;DHT22;41247;49.736;8.752;2023-05-17T19:57:58;8.70;99.90
55369;DHT22;41247;49.736;8.752;2023-05-17T20:01:38;8.60;99.90
55369;DHT22;41247;49.736;8.752;2023-05-17T20:05:19;8.40;99.90
55369;DHT22;41247;49.736;8.752;2023-05-17T20:09:00;8.30;99.90
55369;DHT22;41247;49.736;8.752;2023-05-17T20:12:41;8.20;99.90
55369;DHT22;41247;49.736;8.752;2023-05-17T20:16:21;8.10;99.90
55369;DHT22;41247;49.736;8.752;2023-05-17T20:20:02;8.00;99.90
55369;DHT22;41247;49.736;8.752;2023-05-17T20:23:44;8.00;99.90
55369;DHT22;41247;49.736;8.752;2023-05-17T20:27:25;7.90;99.90
55369;DHT22;41247;49.736;8.752;2023-05-17T20:31:05;7.70;99.90
55369;DHT22;41247;49.736;8.752;2023-05-17T20:34:46;7.70;99.90
55369;DHT22;41247;49.736;8.752;2023-05-17T20:38:26;7.60;99.90
55369;DHT22;41247;49.736;8.752;2023-05-17T20:42:07;7.60;99.90
55369;DHT22;41247;49.736;8.752;2023-05-17T20:45:47;7.40;99.90
55369;DHT22;41247;49.736;8.752;2023-05-17T20:49:28;7.40;99.90
55369;DHT22;41247;49.736;8.752;2023-05-17T20:53:09;7.30;99.90
55369;DHT22;41247;49.736;8.752;2023-05-17T20:56:49;7.30;99.90
55369;DHT22;41247;49.736;8.752;2023-05-17T21:00:30;7.20;99.90
55369;DHT22;41247;49.736;8.752;2023-05-17T21:04:10;7.10;99.90
55369;DHT22;41247;49.736;8.752;2023-05-17T21:07:51;7.10;99.90
55369;DHT22;41247;49.736;8.752;2023-05-17T21:11:31;7.10;99.90
55369;DHT22;41247;49.736;8.752;2023-05-17T21:15:12;7.00;99.90
55369;DHT22;41247;49.736;8.752;2023-05-17T21:18:53;6.90;99.90
55369;DHT22;41247;49.736;8.752;2023-05-17T21:22:33;6.90;99.90
55369;DHT22;41247;49.736;8.752;2023-05-17T21:26:14;6.90;99.90
55369;DHT22;41247;49.736;8.752;2023-05-17T21:29:55;6.80;99.90
55369;DHT22;41247;49.736;8.752;2023-05-17T21:33:35;6.80;99.90
55369;DHT22;41247;49.736;8.752;2023-05-17T21:37:16;6.70;99.90
55369;DHT22;41247;49.736;8.752;2023-05-17T21:40:56;6.70;99.90
55369;DHT22;41247;49.736;8.752;2023-05-17T21:44:37;6.60;99.90
55369;DHT22;41247;49.736;8.752;2023-05-17T21:48:17;6.50;99.90
55369;DHT22;41247;49.736;8.752;2023-05-17T21:51:58;6.50;99.90
55369;DHT22;41247;49.736;8.752;2023-05-17T21:55:39;6.50;99.90
55369;DHT22;41247;49.736;8.752;2023-05-17T21:59:19;6.40;99.90
55369;DHT22;41247;49.736;8.752;2023-05-17T22:03:00;6.40;99.90
55369;DHT22;41247;49.736;8.752;2023-05-17T22:06:41;6.30;99.90
55369;DHT22;41247;49.736;8.752;2023-05-17T22:10:21;6.30;99.90
55369;DHT22;41247;49.736;8.752;2023-05-17T22:14:02;6.20;99.90
55369;DHT22;41247;49.736;8.752;2023-05-17T22:17:43;6.10;99.90
55369;DHT22;41247;49.736;8.752;2023-05-17T22:21:23;6.10;99.90
55369;DHT22;41247;49.736;8.752;2023-05-17T22:25:05;6.10;99.90
55369;DHT22;41247;49.736;8.752;2023-05-17T22:28:46;6.00;99.90
55369;DHT22;41247;49.736;8.752;2023-05-17T22:32:26;6.00;99.90
55369;DHT22;41247;49.736;8.752;2023-05-17T22:36:07;5.90;99.90
55369;DHT22;41247;49.736;8.752;2023-05-17T22:39:48;5.90;99.90
55369;DHT22;41247;49.736;8.752;2023-05-17T22:43:29;5.80;99.90
55369;DHT22;41247;49.736;8.752;2023-05-17T22:47:09;5.80;99.90
55369;DHT22;41247;49.736;8.752;2023-05-17T22:50:50;5.70;99.90
55369;DHT22;41247;49.736;8.752;2023-05-17T22:54:35;5.70;99.90
55369;DHT22;41247;49.736;8.752;2023-05-17T22:58:16;5.60;99.90
55369;DHT22;41247;49.736;8.752;2023-05-17T23:01:57;5.50;99.90
55369;DHT22;41247;49.736;8.752;2023-05-17T23:05:38;5.50;99.90
55369;DHT22;41247;49.736;8.752;2023-05-17T23:09:20;5.40;99.90
55369;DHT22;41247;49.736;8.752;2023-05-17T23:13:00;5.40;99.90
55369;DHT22;41247;49.736;8.752;2023-05-17T23:16:41;5.40;99.90
55369;DHT22;41247;49.736;8.752;2023-05-17T23:20:21;5.40;99.90
55369;DHT22;41247;49.736;8.752;2023-05-17T23:24:02;5.30;99.90
55369;DHT22;41247;49.736;8.752;2023-05-17T23:27:43;5.30;99.90
55369;DHT22;41247;49.736;8.752;2023-05-17T23:31:23;5.30;99.90
55369;DHT22;41247;49.736;8.752;2023-05-17T23:35:04;5.30;99.90
55369;DHT22;41247;49.736;8.752;2023-05-17T23:38:45;5.30;99.90